createdAt,value
2023-04-19T00:01:16.939Z,16.67
2023-04-19T00:03:43.592Z,16.58
2023-04-19T00:06:10.294Z,17.31
2023-04-19T00:08:36.699Z,16.28
2023-04-19T00:11:03.146Z,17.23
2023-04-19T00:13:29.537Z,16.28
2023-04-19T00:15:55.887Z,16.86
2023-04-19T00:18:22.280Z,16.85
2023-04-19T00:20:48.798Z,16.12
2023-04-19T00:23:15.291Z,16.37
2023-04-19T00:25:41.734Z,16.50
2023-04-19T00:28:08.187Z,16.28
2023-04-19T00:30:34.669Z,16.06
2023-04-19T00:33:01.324Z,16.52
2023-04-19T00:35:27.766Z,16.55
2023-04-19T00:37:54.239Z,16.45
2023-04-19T00:40:20.678Z,16.14
2023-04-19T00:42:47.082Z,16.26
2023-04-19T00:45:14.473Z,15.99
2023-04-19T00:47:41.350Z,15.66
2023-04-19T00:50:08.390Z,16.53
2023-04-19T00:52:34.886Z,15.77
2023-04-19T00:55:01.567Z,16.06
2023-04-19T00:57:28.532Z,15.62
2023-04-19T00:59:55.453Z,16.05
2023-04-19T01:02:22.379Z,16.84
2023-04-19T01:04:49.016Z,15.69
2023-04-19T01:07:15.569Z,15.66
2023-04-19T01:09:43.872Z,15.29
2023-04-19T01:12:10.295Z,15.57
2023-04-19T01:14:36.660Z,16.12
2023-04-19T01:17:03.050Z,16.43
2023-04-19T01:19:29.529Z,15.88
2023-04-19T01:21:58.235Z,16.71
2023-04-19T01:24:24.662Z,16.49
2023-04-19T01:26:51.301Z,16.63
2023-04-19T01:29:18.721Z,16.27
2023-04-19T01:31:49.161Z,15.32
2023-04-19T01:34:15.751Z,15.83
2023-04-19T01:36:42.206Z,15.65
2023-04-19T01:39:08.538Z,15.61
2023-04-19T01:41:34.855Z,15.48
2023-04-19T01:44:01.355Z,15.37
2023-04-19T01:46:27.661Z,15.34
2023-04-19T01:48:54.026Z,15.82
2023-04-19T01:51:21.756Z,15.85
2023-04-19T01:53:53.402Z,14.54
2023-04-19T01:56:19.930Z,14.85
2023-04-19T01:58:46.248Z,14.88
2023-04-19T02:01:13.043Z,15.35
2023-04-19T02:03:39.710Z,15.10
2023-04-19T02:06:06.106Z,14.35
2023-04-19T02:08:32.437Z,15.08
2023-04-19T02:10:58.704Z,14.98
2023-04-19T02:13:25.113Z,14.89
2023-04-19T02:15:51.575Z,15.01
2023-04-19T02:18:18.411Z,15.35
2023-04-19T02:20:44.698Z,15.08
2023-04-19T02:23:10.998Z,14.51
2023-04-19T02:25:37.320Z,15.47
2023-04-19T02:28:03.643Z,15.16
2023-04-19T02:30:29.972Z,14.60
2023-04-19T02:32:56.323Z,14.92
2023-04-19T02:35:23.001Z,14.99
2023-04-19T02:37:49.313Z,14.42
2023-04-19T02:40:16.022Z,15.48
2023-04-19T02:42:42.358Z,15.35
2023-04-19T02:45:08.957Z,15.27
2023-04-19T02:47:35.375Z,15.30
2023-04-19T02:50:01.813Z,15.31
2023-04-19T02:52:28.116Z,15.44
2023-04-19T02:54:54.407Z,15.12
2023-04-19T02:57:20.967Z,14.78
2023-04-19T02:59:47.259Z,15.21
2023-04-19T03:02:13.592Z,14.87
2023-04-19T03:04:40.001Z,13.93
2023-04-19T03:07:06.868Z,14.36
2023-04-19T03:09:33.291Z,13.92
2023-04-19T03:11:59.684Z,14.12
2023-04-19T03:14:26.150Z,13.55
2023-04-19T03:16:52.463Z,13.83
2023-04-19T03:19:19.843Z,13.14
2023-04-19T03:21:46.500Z,13.12
2023-04-19T03:24:13.128Z,13.35
2023-04-19T03:26:39.609Z,14.15
2023-04-19T03:29:06.130Z,14.32
2023-04-19T03:31:32.831Z,13.16
2023-04-19T03:33:59.314Z,13.92
2023-04-19T03:36:26.829Z,13.89
2023-04-19T03:38:53.223Z,13.33
2023-04-19T03:41:20.804Z,13.50
2023-04-19T03:43:47.567Z,13.16
2023-04-19T03:46:13.943Z,13.54
2023-04-19T03:48:40.733Z,14.00
2023-04-19T03:51:07.454Z,14.23
2023-04-19T03:53:33.975Z,14.15
2023-04-19T03:56:00.846Z,14.12
2023-04-19T03:58:27.287Z,14.22
2023-04-19T04:00:53.658Z,14.32
2023-04-19T04:03:20.506Z,14.58
2023-04-19T04:05:47.058Z,13.76
2023-04-19T04:08:14.045Z,13.96
2023-04-19T04:10:40.450Z,14.37
2023-04-19T04:13:06.864Z,13.65
2023-04-19T04:15:33.485Z,13.26
2023-04-19T04:17:59.940Z,13.50
2023-04-19T04:20:26.450Z,13.06
2023-04-19T04:22:52.901Z,13.71
2023-04-19T04:25:21.200Z,13.77
2023-04-19T04:27:51.964Z,13.51
2023-04-19T04:30:18.435Z,13.37
2023-04-19T04:32:46.936Z,13.49
2023-04-19T04:35:13.389Z,13.14
2023-04-19T04:37:40.318Z,13.22
2023-04-19T04:40:08.100Z,13.89
2023-04-19T04:42:35.541Z,13.07
2023-04-19T04:45:02.131Z,13.21
2023-04-19T04:47:32.520Z,12.78
2023-04-19T04:49:59.725Z,13.89
2023-04-19T04:52:26.209Z,12.88
2023-04-19T04:54:52.705Z,13.04
2023-04-19T04:57:19.622Z,12.37
2023-04-19T04:59:48.972Z,12.42
2023-04-19T05:02:15.718Z,12.56
2023-04-19T05:04:42.695Z,12.08
2023-04-19T05:07:09.513Z,12.37
2023-04-19T05:09:35.990Z,13.07
2023-04-19T05:12:02.653Z,13.33
2023-04-19T05:14:29.090Z,12.70
2023-04-19T05:16:55.451Z,13.35
2023-04-19T05:19:21.962Z,12.82
2023-04-19T05:21:48.469Z,12.33
2023-04-19T05:24:15.235Z,12.47
2023-04-19T05:26:41.842Z,12.37
2023-04-19T05:29:08.299Z,12.71
2023-04-19T05:31:34.769Z,12.77
2023-04-19T05:34:01.270Z,12.64
2023-04-19T05:36:28.328Z,11.95
2023-04-19T05:38:54.900Z,11.72
2023-04-19T05:41:21.370Z,12.17
2023-04-19T05:43:47.980Z,12.63
2023-04-19T05:46:14.445Z,12.43
2023-04-19T05:48:40.883Z,12.38
2023-04-19T05:51:07.238Z,11.66
2023-04-19T05:53:33.630Z,12.37
2023-04-19T05:56:00.185Z,12.42
2023-04-19T05:58:27.205Z,12.48
2023-04-19T06:00:53.707Z,12.25
2023-04-19T06:03:20.394Z,12.59
2023-04-19T06:05:47.058Z,12.32
2023-04-19T06:08:16.412Z,12.86
2023-04-19T06:10:53.202Z,12.49
2023-04-19T06:13:22.489Z,12.60
2023-04-19T06:15:49.135Z,13.36
2023-04-19T06:18:19.710Z,13.15
2023-04-19T06:20:46.776Z,13.40
2023-04-19T06:23:14.704Z,12.94
2023-04-19T06:25:41.237Z,13.03
2023-04-19T06:28:07.703Z,13.55
2023-04-19T06:30:34.186Z,13.88
2023-04-19T06:33:00.936Z,14.02
2023-04-19T06:35:27.685Z,14.73
2023-04-19T06:37:54.176Z,13.66
2023-04-19T06:40:20.825Z,14.16
2023-04-19T06:42:47.202Z,13.82
2023-04-19T06:45:15.121Z,13.29
2023-04-19T06:47:41.790Z,13.57
2023-04-19T06:50:08.891Z,14.91
2023-04-19T06:52:35.317Z,14.76
2023-04-19T06:55:01.741Z,14.24
2023-04-19T06:57:28.138Z,14.54
2023-04-19T06:59:55.195Z,13.73
2023-04-19T07:02:21.989Z,14.26
2023-04-19T07:04:48.682Z,13.78
2023-04-19T07:07:15.185Z,13.59
2023-04-19T07:09:41.603Z,15.19
2023-04-19T07:12:08.109Z,14.29
2023-04-19T07:14:34.512Z,14.35
2023-04-19T07:17:00.949Z,14.43
2023-04-19T07:19:29.006Z,15.74
2023-04-19T07:21:55.581Z,14.84
2023-04-19T07:24:22.296Z,15.64
2023-04-19T07:26:48.704Z,15.49
2023-04-19T07:29:15.180Z,15.63
2023-04-19T07:31:42.055Z,14.47
2023-04-19T07:34:08.903Z,15.15
2023-04-19T07:36:36.944Z,16.21
2023-04-19T07:39:04.764Z,17.08
2023-04-19T07:41:32.339Z,16.31
2023-04-19T07:43:58.806Z,17.03
2023-04-19T07:46:25.407Z,16.77
2023-04-19T07:48:51.981Z,15.23
2023-04-19T07:51:19.342Z,15.78
2023-04-19T07:53:47.647Z,15.91
2023-04-19T07:56:15.721Z,17.50
2023-04-19T07:58:42.322Z,16.95
2023-04-19T08:01:09.408Z,17.41
2023-04-19T08:03:36.899Z,17.50
2023-04-19T08:06:05.547Z,17.42
2023-04-19T08:08:33.993Z,17.31
2023-04-19T08:11:02.317Z,16.91
2023-04-19T08:13:29.542Z,16.92
2023-04-19T08:18:25.521Z,16.97
2023-04-19T08:20:52.005Z,17.10
2023-04-19T08:23:24.165Z,17.30
2023-04-19T08:25:52.344Z,16.70
2023-04-19T08:28:19.161Z,17.33
2023-04-19T08:30:45.695Z,17.63
2023-04-19T08:33:12.729Z,18.05
2023-04-19T08:35:41.336Z,18.02
2023-04-19T08:38:08.560Z,17.18
2023-04-19T08:40:34.879Z,16.99
2023-04-19T08:43:05.081Z,17.39
2023-04-19T08:45:31.385Z,18.11
2023-04-19T08:48:01.423Z,17.52
2023-04-19T08:50:34.578Z,18.16
2023-04-19T08:53:23.954Z,19.26
2023-04-19T08:56:08.836Z,18.07
2023-04-19T08:58:54.834Z,19.04
2023-04-19T09:01:33.917Z,18.66
2023-04-19T09:04:17.006Z,18.85
2023-04-19T09:06:48.240Z,17.85
2023-04-19T09:09:33.158Z,18.00
2023-04-19T09:12:02.208Z,18.21
2023-04-19T09:14:29.176Z,18.59
2023-04-19T09:17:11.519Z,18.48
2023-04-19T09:19:47.896Z,18.60
2023-04-19T09:22:14.799Z,18.09
2023-04-19T09:27:13.504Z,20.44
2023-04-19T09:29:40.002Z,20.01
2023-04-19T09:32:06.489Z,18.36
2023-04-19T09:34:32.938Z,18.17
2023-04-19T09:37:15.165Z,18.59
2023-04-19T09:39:54.584Z,18.81
2023-04-19T09:42:42.208Z,18.84
2023-04-19T09:47:36.990Z,18.71
2023-04-19T09:50:21.755Z,18.71
2023-04-19T09:52:50.592Z,18.86
2023-04-19T09:55:26.653Z,19.38
2023-04-19T09:57:54.586Z,19.48
2023-04-19T10:00:23.877Z,20.44
2023-04-19T10:02:55.690Z,19.19
2023-04-19T10:05:23.067Z,19.56
2023-04-19T10:07:50.333Z,19.16
2023-04-19T10:10:20.790Z,18.92
2023-04-19T10:15:22.121Z,18.71
2023-04-19T10:17:48.904Z,19.28
2023-04-19T10:20:21.770Z,20.25
2023-04-19T10:22:48.909Z,20.04
2023-04-19T10:25:16.864Z,20.58
2023-04-19T10:27:48.940Z,20.96
2023-04-19T10:30:20.606Z,20.33
2023-04-19T10:32:53.387Z,19.70
2023-04-19T10:35:24.647Z,20.48
2023-04-19T10:38:07.025Z,20.43
2023-04-19T10:40:59.028Z,21.47
2023-04-19T10:43:26.740Z,22.11
2023-04-19T10:45:53.450Z,21.35
2023-04-19T10:48:35.475Z,19.88
2023-04-19T10:51:19.045Z,21.72
2023-04-19T10:53:54.544Z,20.01
2023-04-19T10:56:32.721Z,20.37
2023-04-19T10:59:02.181Z,19.47
2023-04-19T11:01:45.316Z,19.44
2023-04-19T11:04:31.023Z,19.74
2023-04-19T11:07:05.405Z,20.46
2023-04-19T11:09:42.129Z,21.16
2023-04-19T11:12:11.976Z,21.87
2023-04-19T11:14:42.677Z,20.13
2023-04-19T11:17:17.376Z,20.94
2023-04-19T11:20:08.405Z,21.83
2023-04-19T11:22:37.189Z,19.65
2023-04-19T11:25:06.564Z,21.35
2023-04-19T11:27:34.332Z,21.27
2023-04-19T11:30:21.443Z,20.70
2023-04-19T11:32:48.280Z,21.38
2023-04-19T11:35:14.951Z,20.83
2023-04-19T11:37:41.254Z,22.13
2023-04-19T11:40:08.816Z,22.13
2023-04-19T11:42:35.814Z,20.88
2023-04-19T11:45:02.401Z,20.86
2023-04-19T11:47:29.019Z,21.10
2023-04-19T11:49:56.490Z,21.54
2023-04-19T11:52:25.135Z,20.91
2023-04-19T11:54:54.643Z,20.80
2023-04-19T11:57:28.601Z,20.29
2023-04-19T12:00:12.173Z,22.16
2023-04-19T12:02:44.022Z,20.05
2023-04-19T12:05:12.169Z,19.96
2023-04-19T12:08:09.542Z,19.85
2023-04-19T12:10:36.291Z,20.34
2023-04-19T12:13:17.605Z,21.35
2023-04-19T12:15:45.064Z,22.11
2023-04-19T12:18:11.708Z,22.06
2023-04-19T12:20:43.561Z,22.74
2023-04-19T12:23:13.782Z,21.55
2023-04-19T12:25:40.793Z,20.00
2023-04-19T12:28:07.152Z,20.65
2023-04-19T12:30:35.062Z,21.09
2023-04-19T12:33:01.757Z,21.93
2023-04-19T12:35:28.745Z,21.77
2023-04-19T12:37:57.413Z,21.34
2023-04-19T12:40:24.184Z,21.75
2023-04-19T12:42:51.030Z,22.40
2023-04-19T12:45:17.705Z,20.78
2023-04-19T12:47:45.208Z,20.22
2023-04-19T12:50:12.379Z,20.84
2023-04-19T12:52:39.062Z,19.64
2023-04-19T12:55:06.348Z,20.48
2023-04-19T12:57:32.804Z,20.00
2023-04-19T12:59:59.502Z,20.52
2023-04-19T13:02:26.093Z,19.85
2023-04-19T13:04:52.903Z,19.84
2023-04-19T13:07:19.363Z,20.06
2023-04-19T13:09:45.767Z,20.29
2023-04-19T13:12:12.353Z,20.48
2023-04-19T13:14:38.766Z,20.59
2023-04-19T13:17:05.519Z,20.75
2023-04-19T13:19:31.932Z,20.15
2023-04-19T13:21:58.438Z,20.48
2023-04-19T13:24:24.921Z,21.94
2023-04-19T13:26:51.594Z,21.64
2023-04-19T13:29:18.050Z,19.75
2023-04-19T13:31:45.163Z,21.00
2023-04-19T13:34:11.691Z,19.78
2023-04-19T13:36:48.870Z,19.70
2023-04-19T13:39:15.875Z,21.35
2023-04-19T13:41:42.316Z,20.15
2023-04-19T13:44:08.827Z,19.88
2023-04-19T13:46:35.316Z,20.16
2023-04-19T13:49:01.862Z,21.41
2023-04-19T13:51:38.761Z,20.87
2023-04-19T13:54:13.728Z,19.83
2023-04-19T13:56:40.423Z,21.19
2023-04-19T13:59:07.091Z,20.81
2023-04-19T14:01:33.716Z,19.22
2023-04-19T14:04:00.309Z,19.54
2023-04-19T14:06:26.859Z,20.37
2023-04-19T14:08:53.464Z,19.90
2023-04-19T14:11:20.668Z,19.70
2023-04-19T14:13:48.288Z,19.24
2023-04-19T14:16:14.879Z,19.76
2023-04-19T14:18:41.569Z,19.84
2023-04-19T14:21:08.021Z,20.15
2023-04-19T14:23:34.701Z,19.84
2023-04-19T14:26:01.419Z,19.37
2023-04-19T14:28:27.788Z,20.17
2023-04-19T14:30:54.221Z,20.47
2023-04-19T14:33:20.871Z,20.08
2023-04-19T14:35:47.381Z,20.35
2023-04-19T14:38:13.868Z,20.29
2023-04-19T14:40:40.327Z,21.66
2023-04-19T14:43:06.759Z,21.14
2023-04-19T14:45:33.231Z,20.55
2023-04-19T14:47:59.756Z,20.89
2023-04-19T14:50:26.840Z,20.35
2023-04-19T14:52:54.632Z,20.37
2023-04-19T14:55:22.655Z,19.83
2023-04-19T14:57:49.150Z,19.98
2023-04-19T15:00:16.389Z,19.86
2023-04-19T15:02:43.011Z,20.92
2023-04-19T15:05:10.029Z,20.96
2023-04-19T15:07:36.640Z,19.49
2023-04-19T15:10:03.686Z,18.51
2023-04-19T15:12:30.114Z,19.14
2023-04-19T15:14:56.553Z,19.94
2023-04-19T15:17:23.000Z,20.33
2023-04-19T15:19:49.453Z,18.95
2023-04-19T15:22:15.869Z,19.42
2023-04-19T15:24:42.363Z,19.28
2023-04-19T15:27:09.138Z,19.34
2023-04-19T15:29:35.774Z,19.38
2023-04-19T15:32:02.820Z,20.38
2023-04-19T15:34:29.219Z,19.94
2023-04-19T15:36:55.805Z,18.96
2023-04-19T15:39:22.234Z,19.59
2023-04-19T15:41:49.320Z,19.59
2023-04-19T15:44:15.835Z,19.91
2023-04-19T15:46:42.339Z,19.83
2023-04-19T15:49:08.841Z,19.38
2023-04-19T15:51:35.258Z,19.46
2023-04-19T15:54:01.713Z,20.29
2023-04-19T15:56:28.080Z,19.48
2023-04-19T15:58:54.745Z,20.16
2023-04-19T16:01:22.841Z,19.75
2023-04-19T16:03:49.464Z,18.92
2023-04-19T16:06:16.174Z,20.52
2023-04-19T16:08:42.797Z,20.74
2023-04-19T16:11:09.370Z,20.34
2023-04-19T16:13:35.901Z,20.17
2023-04-19T16:16:02.436Z,20.65
2023-04-19T16:18:28.997Z,20.43
2023-04-19T16:20:55.878Z,19.41
2023-04-19T16:23:24.203Z,18.67
2023-04-19T16:25:50.834Z,18.70
2023-04-19T16:28:18.411Z,19.14
2023-04-19T16:30:45.915Z,18.47
2023-04-19T16:33:12.411Z,18.74
2023-04-19T16:35:39.009Z,19.51
2023-04-19T16:38:06.925Z,19.86
2023-04-19T16:40:33.344Z,19.74
2023-04-19T16:43:02.477Z,20.05
2023-04-19T16:45:29.049Z,19.46
2023-04-19T16:47:55.984Z,19.79
2023-04-19T16:50:22.418Z,19.40
2023-04-19T16:52:48.885Z,18.98
2023-04-19T16:55:15.706Z,18.91
2023-04-19T16:57:42.204Z,19.06
2023-04-19T17:00:09.880Z,19.11
2023-04-19T17:02:36.454Z,19.37
2023-04-19T17:05:03.160Z,18.86
2023-04-19T17:07:29.755Z,18.99
2023-04-19T17:09:56.446Z,18.84
2023-04-19T17:12:23.309Z,19.40
2023-04-19T17:14:50.084Z,18.05
2023-04-19T17:17:19.083Z,18.30
2023-04-19T17:19:45.697Z,19.09
2023-04-19T17:22:14.558Z,18.94
2023-04-19T17:24:41.345Z,19.33
2023-04-19T17:27:07.876Z,19.24
2023-04-19T17:29:34.454Z,18.68
2023-04-19T17:32:01.781Z,18.72
2023-04-19T17:34:28.419Z,18.26
2023-04-19T17:36:55.058Z,18.41
2023-04-19T17:39:21.628Z,19.22
2023-04-19T17:41:47.995Z,19.83
2023-04-19T17:44:14.530Z,18.76
2023-04-19T17:46:41.087Z,19.48
2023-04-19T17:49:09.086Z,18.96
2023-04-19T17:51:35.608Z,20.09
2023-04-19T17:54:02.170Z,19.61
2023-04-19T17:56:28.577Z,18.88
2023-04-19T17:58:55.165Z,19.03
2023-04-19T18:01:21.717Z,18.53
2023-04-19T18:03:51.655Z,19.82
2023-04-19T18:06:20.696Z,18.87
2023-04-19T18:08:47.380Z,19.60
2023-04-19T18:11:16.199Z,19.90
2023-04-19T18:13:42.705Z,17.94
2023-04-19T18:16:10.167Z,18.54
2023-04-19T18:18:37.063Z,18.25
2023-04-19T18:21:06.865Z,18.63
2023-04-19T18:23:33.487Z,19.34
2023-04-19T18:26:03.957Z,19.78
2023-04-19T18:28:30.576Z,18.11
2023-04-19T18:30:57.139Z,19.20
2023-04-19T18:33:23.859Z,18.59
2023-04-19T18:35:50.357Z,18.84
2023-04-19T18:38:16.978Z,18.76
2023-04-19T18:40:45.689Z,19.15
2023-04-19T18:43:12.254Z,18.60
2023-04-19T18:45:39.075Z,18.71
2023-04-19T18:48:05.760Z,19.69
2023-04-19T18:50:32.472Z,18.54
2023-04-19T18:52:59.038Z,18.83
2023-04-19T18:55:26.621Z,18.33
2023-04-19T18:57:53.112Z,17.75
2023-04-19T19:00:21.603Z,19.10
2023-04-19T19:02:48.390Z,18.44
2023-04-19T19:05:16.158Z,18.03
2023-04-19T19:07:43.101Z,18.73
2023-04-19T19:10:19.351Z,18.71
2023-04-19T19:12:49.167Z,18.19
2023-04-19T19:15:16.689Z,18.06
2023-04-19T19:17:43.694Z,17.88
2023-04-19T19:20:10.961Z,18.57
2023-04-19T19:22:37.879Z,18.51
2023-04-19T19:25:05.078Z,18.72
2023-04-19T19:27:31.535Z,18.59
2023-04-19T19:30:00.034Z,17.61
2023-04-19T19:32:26.573Z,17.61
2023-04-19T19:35:00.654Z,17.94
2023-04-19T19:37:28.853Z,18.66
2023-04-19T19:39:57.001Z,17.79
2023-04-19T19:42:24.552Z,17.66
2023-04-19T19:44:55.420Z,17.22
2023-04-19T19:47:23.168Z,17.86
2023-04-19T19:50:31.347Z,18.10
2023-04-19T19:52:36.095Z,18.18
2023-04-19T19:55:02.849Z,17.60
2023-04-19T19:58:20.614Z,18.33
2023-04-19T20:00:42.087Z,17.06
2023-04-19T20:03:06.258Z,17.39
2023-04-19T20:05:33.767Z,16.98
2023-04-19T20:08:10.127Z,17.42
2023-04-19T20:10:38.268Z,17.06
2023-04-19T20:13:06.591Z,16.92
2023-04-19T20:15:34.304Z,17.40
2023-04-19T20:18:00.812Z,17.71
2023-04-19T20:20:27.484Z,17.45
2023-04-19T20:22:54.023Z,17.23
2023-04-19T20:25:20.572Z,17.17
2023-04-19T20:27:47.025Z,16.67
2023-04-19T20:30:15.101Z,16.85
2023-04-19T20:32:42.924Z,17.48
2023-04-19T20:35:11.951Z,16.80
2023-04-19T20:37:42.081Z,17.49
2023-04-19T20:40:14.433Z,18.53
2023-04-19T20:42:41.939Z,17.93
2023-04-19T20:45:10.500Z,17.25
2023-04-19T20:47:38.334Z,16.75
2023-04-19T20:50:06.761Z,17.08
2023-04-19T20:52:33.341Z,16.34
2023-04-19T20:55:00.025Z,16.19
2023-04-19T20:57:26.568Z,16.10
2023-04-19T20:59:53.041Z,15.63
2023-04-19T21:02:19.637Z,16.29
2023-04-19T21:04:46.058Z,16.59
2023-04-19T21:07:12.460Z,15.94
2023-04-19T21:09:39.194Z,16.91
2023-04-19T21:12:05.675Z,15.65
2023-04-19T21:14:35.178Z,16.28
2023-04-19T21:17:02.553Z,16.25
2023-04-19T21:19:29.432Z,15.68
2023-04-19T21:21:56.084Z,16.53
2023-04-19T21:24:22.636Z,16.04
2023-04-19T21:26:49.059Z,15.63
2023-04-19T21:29:15.874Z,15.20
2023-04-19T21:31:42.553Z,15.57
2023-04-19T21:34:08.990Z,15.93
2023-04-19T21:36:35.449Z,15.84
2023-04-19T21:39:01.826Z,16.30
2023-04-19T21:41:28.248Z,16.38
2023-04-19T21:43:54.717Z,15.96
2023-04-19T21:46:21.278Z,16.84
2023-04-19T21:48:47.768Z,15.62
2023-04-19T21:51:14.176Z,15.92
2023-04-19T21:53:40.740Z,16.27
2023-04-19T21:56:08.454Z,16.00
2023-04-19T21:58:34.946Z,15.91
2023-04-19T22:01:01.375Z,15.28
2023-04-19T22:03:28.126Z,15.86
2023-04-19T22:05:54.681Z,15.75
2023-04-19T22:08:22.055Z,15.41
2023-04-19T22:10:50.418Z,16.57
2023-04-19T22:13:17.636Z,16.16
2023-04-19T22:15:44.041Z,16.00
2023-04-19T22:18:10.495Z,16.11
2023-04-19T22:20:38.336Z,15.70
2023-04-19T22:23:04.976Z,16.42
2023-04-19T22:25:31.381Z,15.98
2023-04-19T22:27:57.836Z,15.97
2023-04-19T22:30:24.282Z,14.85
2023-04-19T22:32:51.065Z,15.47
2023-04-19T22:35:17.553Z,15.85
2023-04-19T22:37:44.015Z,15.84
2023-04-19T22:40:10.954Z,16.59
2023-04-19T22:42:37.402Z,16.23
2023-04-19T22:45:04.070Z,16.17
2023-04-19T22:47:31.309Z,17.09
2023-04-19T22:49:57.711Z,16.12
2023-04-19T22:52:24.255Z,15.99
2023-04-19T22:54:50.764Z,16.83
2023-04-19T22:57:17.150Z,16.86
2023-04-19T22:59:43.557Z,16.78
2023-04-19T23:02:10.520Z,16.38
2023-04-19T23:04:37.900Z,15.80
2023-04-19T23:07:04.477Z,16.37
2023-04-19T23:09:30.859Z,16.16
2023-04-19T23:11:58.624Z,15.87
2023-04-19T23:14:25.049Z,15.86
2023-04-19T23:16:54.666Z,15.76
2023-04-19T23:19:22.754Z,16.22
2023-04-19T23:21:50.025Z,15.84
2023-04-19T23:24:17.408Z,15.90
2023-04-19T23:26:43.936Z,16.01
2023-04-19T23:29:10.522Z,15.46
2023-04-19T23:31:37.106Z,15.86
2023-04-19T23:34:03.584Z,15.63
2023-04-19T23:36:30.051Z,15.32
2023-04-19T23:38:56.551Z,15.17
2023-04-19T23:41:22.949Z,15.17
2023-04-19T23:43:49.499Z,14.68
2023-04-19T23:46:15.929Z,15.37
2023-04-19T23:48:42.438Z,15.79
2023-04-19T23:51:08.943Z,15.35
2023-04-19T23:53:35.955Z,15.31
2023-04-19T23:56:02.329Z,15.38
2023-04-19T23:58:28.792Z,15.31
